Time;durP1;ratioP1;P1;durP2;ratioP2;P2;SDS_P1;SDS_P2;PMS_P1;PMS_P2;Temp;Humidity;BMP_temperature;BMP_pressure;BME280_temperature;BME280_humidity;BME280_pressure;Samples;Min_cycle;Max_cycle;Signal;HPM_P1;HPM_P2
2020/12/11 00:00:04;;;;;;;;;;;;;;;;;;5073781;28;19916;-69
2020/12/11 00:02:30;;;;;;;;;;;;;;;;;;5075137;28;19912;-71
2020/12/11 00:04:56;;;;;;;;;;;;;;;;;;5075180;28;19909;-72
2020/12/11 00:07:22;;;;;;;;;;;;;;;;;;5068368;28;19940;-71
2020/12/11 00:09:48;;;;;;;;;;;;;;;;;;5069894;28;19999;-71
2020/12/11 00:12:14;;;;;;;;;;;;;;;;;;5075205;28;20295;-72
2020/12/11 00:14:40;;;;;;;;;;;;;;;;;;5074986;28;20290;-72
2020/12/11 00:17:06;;;;;;;;;;;;;;;;;;5073632;28;19956;-72
2020/12/11 00:19:32;;;;;;;;;;;;;;;;;;5074683;28;19952;-72
2020/12/11 00:21:58;;;;;;;;;;;;;;;;;;5074319;28;19935;-72
2020/12/11 00:24:24;;;;;;;;;;;;;;;;;;5074762;28;20371;-72
2020/12/11 00:26:50;;;;;;;;;;;;;;;;;;5074734;28;20016;-71
2020/12/11 00:29:16;;;;;;;;;;;;;;;;;;5058340;28;20519;-71
2020/12/11 00:31:42;;;;;;;;;;;;;;;;;;5054591;28;19936;-72
2020/12/11 00:34:07;;;;;;;;;;;;;;;;;;5054984;28;20394;-72
2020/12/11 00:36:33;;;;;;;;;;;;;;;;;;5057445;28;19951;-72
2020/12/11 00:38:59;;;;;;;;;;;;;;;;;;5056536;28;19984;-72
2020/12/11 00:41:25;;;;;;;;;;;;;;;;;;5066553;28;20516;-71
2020/12/11 00:43:51;;;;;;;;;;;;;;;;;;5074609;28;19991;-72
2020/12/11 00:46:17;;;;;;;;;;;;;;;;;;5073019;28;19905;-71
2020/12/11 00:48:43;;;;;;;;;;;;;;;;;;5073127;28;19920;-71
2020/12/11 00:51:09;;;;;;;;;;;;;;;;;;5074168;28;19905;-71
2020/12/11 00:53:35;;;;;;;;;;;;;;;;;;5073871;28;19909;-71
2020/12/11 00:56:00;;;;;;;;;;;;;;;;;;5074095;28;19909;-71
2020/12/11 00:58:26;;;;;;;;;;;;;;;;;;5072608;28;19960;-72
2020/12/11 01:00:52;;;;;;;;;;;;;;;;;;5073282;28;20501;-71
2020/12/11 01:03:18;;;;;;;;;;;;;;;;;;5074115;28;19931;-71
2020/12/11 01:05:44;;;;;;;;;;;;;;;;;;5073812;28;19950;-71
2020/12/11 01:08:10;;;;;;;;;;;;;;;;;;5072298;28;19966;-72
2020/12/11 01:10:36;;;;;;;;;;;;;;;;;;5061550;28;19952;-71
2020/12/11 01:13:02;;;;;;;;;;;;;;;;;;5066890;28;19944;-71
2020/12/11 01:15:28;;;;;;;;;;;;;;;;;;5066072;28;19952;-71
2020/12/11 01:17:54;;;;;;;;;;;;;;;;;;5073643;28;19924;-72
2020/12/11 01:20:19;;;;;;;;;;;;;;;;;;5073662;28;19908;-71
2020/12/11 01:22:45;;;;;;;;;;;;;;;;;;5073991;28;20288;-72
2020/12/11 01:25:11;;;;;;;;;;;;;;;;;;5073712;28;20368;-72
2020/12/11 01:27:37;;;;;;;;;;;;;;;;;;5073199;28;20414;-71
2020/12/11 01:30:03;;;;;;;;;;;;;;;;;;5072286;28;20027;-72
2020/12/11 01:32:29;;;;;;;;;;;;;;;;;;5073493;28;19961;-72
2020/12/11 01:34:55;;;;;;;;;;;;;;;;;;5067733;28;20429;-71
2020/12/11 01:37:21;;;;;;;;;;;;;;;;;;5063813;28;19912;-71
2020/12/11 01:39:47;;;;;;;;;;;;;;;;;;5072192;28;19909;-71
2020/12/11 01:42:13;;;;;;;;;;;;;;;;;;5065621;28;20360;-71
2020/12/11 01:44:38;;;;;;;;;;;;;;;;;;5067079;28;19909;-72
2020/12/11 01:47:04;;;;;;;;;;;;;;;;;;5073147;28;20402;-71
2020/12/11 01:49:30;;;;;;;;;;;;;;;;;;5072845;28;20009;-72
2020/12/11 01:51:56;;;;;;;;;;;;;;;;;;5071796;28;20058;-71
2020/12/11 01:54:22;;;;;;;;;;;;;;;;;;5073174;28;20431;-72
2020/12/11 01:56:48;;;;;;;;;;;;;;;;;;5073055;28;19908;-71
2020/12/11 01:59:14;;;;;;;;;;;;;;;;;;5073266;28;19963;-71
2020/12/11 02:01:40;;;;;;;;;;;;;;;;;;5078245;28;19931;-72
2020/12/11 02:04:06;;;;;;;;;;;;;;;;;;5081421;28;20318;-71
2020/12/11 02:06:32;;;;;;;;;;;;;;;;;;5080087;28;19916;-71
2020/12/11 02:08:57;;;;;;;;;;;;;;;;;;5075641;28;20058;-71
2020/12/11 02:11:23;;;;;;;;;;;;;;;;;;5069704;28;19951;-71
2020/12/11 02:13:49;;;;;;;;;;;;;;;;;;5064442;28;19944;-72
2020/12/11 02:16:15;;;;;;;;;;;;;;;;;;5072684;28;19908;-72
2020/12/11 02:18:41;;;;;;;;;;;;;;;;;;5072170;28;20356;-71
2020/12/11 02:21:07;;;;;;;;;;;;;;;;;;5066617;28;20011;-71
2020/12/11 02:23:33;;;;;;;;;;;;;;;;;;5064150;28;19915;-72
2020/12/11 02:25:59;;;;;;;;;;;;;;;;;;5072500;28;19915;-71
2020/12/11 02:28:25;;;;;;;;;;;;;;;;;;5072387;28;19943;-71
2020/12/11 02:30:51;;;;;;;;;;;;;;;;;;5070321;28;19952;-71
2020/12/11 02:33:18;;;;;;;;;;;;;;;;;;5048612;28;20003;-71
2020/12/11 02:35:44;;;;;;;;;;;;;;;;;;5067007;28;19923;-72
2020/12/11 02:38:10;;;;;;;;;;;;;;;;;;5070776;28;20418;-72
2020/12/11 02:40:36;;;;;;;;;;;;;;;;;;5072194;28;19992;-71
2020/12/11 02:43:02;;;;;;;;;;;;;;;;;;5072058;28;19909;-72
2020/12/11 02:45:28;;;;;;;;;;;;;;;;;;5072020;28;19912;-71
2020/12/11 02:47:54;;;;;;;;;;;;;;;;;;5071498;28;19908;-71
2020/12/11 02:50:19;;;;;;;;;;;;;;;;;;5072013;28;20080;-72
2020/12/11 02:52:45;;;;;;;;;;;;;;;;;;5071818;28;19912;-71
2020/12/11 02:55:13;;;;;;;;;;;;;;;;;;5066254;28;19916;-72
2020/12/11 02:57:39;;;;;;;;;;;;;;;;;;5065384;28;19912;-72
2020/12/11 03:00:05;;;;;;;;;;;;;;;;;;5071899;28;20275;-72
2020/12/11 03:02:31;;;;;;;;;;;;;;;;;;5059422;28;19959;-71
2020/12/11 03:04:57;;;;;;;;;;;;;;;;;;5068080;28;20075;-72
2020/12/11 03:07:23;;;;;;;;;;;;;;;;;;5070269;28;20026;-72
2020/12/11 03:09:48;;;;;;;;;;;;;;;;;;5061815;28;19955;-72
2020/12/11 03:12:16;;;;;;;;;;;;;;;;;;5063281;28;19954;-71
2020/12/11 03:14:42;;;;;;;;;;;;;;;;;;5071818;28;19909;-72
2020/12/11 03:17:07;;;;;;;;;;;;;;;;;;5070007;28;19970;-72
2020/12/11 03:19:33;;;;;;;;;;;;;;;;;;5071389;28;19995;-72
2020/12/11 03:21:59;;;;;;;;;;;;;;;;;;5071312;28;19994;-72
2020/12/11 03:24:25;;;;;;;;;;;;;;;;;;5070793;28;19991;-72
2020/12/11 03:26:51;;;;;;;;;;;;;;;;;;5071518;28;20011;-72
2020/12/11 03:29:17;;;;;;;;;;;;;;;;;;5071259;28;20323;-71
2020/12/11 03:31:43;;;;;;;;;;;;;;;;;;5071165;28;19962;-71
2020/12/11 03:34:09;;;;;;;;;;;;;;;;;;5071415;28;19908;-71
2020/12/11 03:36:35;;;;;;;;;;;;;;;;;;5071387;28;20000;-72
2020/12/11 03:39:01;;;;;;;;;;;;;;;;;;5061255;28;20341;-72
2020/12/11 03:41:26;;;;;;;;;;;;;;;;;;5057935;28;19995;-71
2020/12/11 03:43:52;;;;;;;;;;;;;;;;;;5059669;28;19955;-72
2020/12/11 03:46:18;;;;;;;;;;;;;;;;;;5050051;28;19994;-72
2020/12/11 03:48:44;;;;;;;;;;;;;;;;;;5051024;28;19916;-71
2020/12/11 03:51:10;;;;;;;;;;;;;;;;;;5049752;28;19940;-71
2020/12/11 03:53:36;;;;;;;;;;;;;;;;;;5051149;28;19948;-71
2020/12/11 03:56:02;;;;;;;;;;;;;;;;;;5049817;28;19955;-71
2020/12/11 03:58:28;;;;;;;;;;;;;;;;;;5050945;28;19948;-71
2020/12/11 04:00:54;;;;;;;;;;;;;;;;;;5049919;28;20005;-71
2020/12/11 04:03:20;;;;;;;;;;;;;;;;;;5043592;28;19916;-71
2020/12/11 04:05:46;;;;;;;;;;;;;;;;;;5051032;28;19908;-72
2020/12/11 04:08:12;;;;;;;;;;;;;;;;;;5051608;28;19952;-72
2020/12/11 04:10:37;;;;;;;;;;;;;;;;;;5062133;28;20363;-71
2020/12/11 04:13:03;;;;;;;;;;;;;;;;;;5070941;28;20011;-71
2020/12/11 04:15:29;;;;;;;;;;;;;;;;;;5069816;28;19905;-71
2020/12/11 04:17:55;;;;;;;;;;;;;;;;;;5070801;28;19952;-72
2020/12/11 04:20:21;;;;;;;;;;;;;;;;;;5071186;28;19916;-71
2020/12/11 04:22:47;;;;;;;;;;;;;;;;;;5071010;28;19940;-71
2020/12/11 04:25:13;;;;;;;;;;;;;;;;;;5065839;28;20019;-71
2020/12/11 04:27:39;;;;;;;;;;;;;;;;;;5035643;28;19909;-71
2020/12/11 04:30:05;;;;;;;;;;;;;;;;;;5050895;28;19909;-72
2020/12/11 04:32:31;;;;;;;;;;;;;;;;;;5050718;28;20428;-72
2020/12/11 04:34:56;;;;;;;;;;;;;;;;;;5051034;28;19941;-72
2020/12/11 04:37:22;;;;;;;;;;;;;;;;;;5061629;28;19917;-71
2020/12/11 04:39:48;;;;;;;;;;;;;;;;;;5067917;28;19967;-72
2020/12/11 04:42:14;;;;;;;;;;;;;;;;;;5074351;28;20372;-71
2020/12/11 04:44:40;;;;;;;;;;;;;;;;;;5074510;28;19930;-71
2020/12/11 04:47:06;;;;;;;;;;;;;;;;;;5074309;28;19909;-72
2020/12/11 04:49:32;;;;;;;;;;;;;;;;;;5074272;28;20319;-71
2020/12/11 04:51:58;;;;;;;;;;;;;;;;;;5074119;28;19909;-71
2020/12/11 04:54:24;;;;;;;;;;;;;;;;;;5073870;28;20481;-72
2020/12/11 04:56:50;;;;;;;;;;;;;;;;;;5074267;28;19913;-72
2020/12/11 04:59:16;;;;;;;;;;;;;;;;;;5074339;28;19958;-72
2020/12/11 05:01:41;;;;;;;;;;;;;;;;;;5079948;28;19908;-72
2020/12/11 05:04:07;;;;;;;;;;;;;;;;;;5080989;28;20327;-72
2020/12/11 05:06:33;;;;;;;;;;;;;;;;;;5082904;28;19908;-72
2020/12/11 05:08:59;;;;;;;;;;;;;;;;;;5078332;28;19912;-72
2020/12/11 05:11:25;;;;;;;;;;;;;;;;;;5078167;28;20311;-71
2020/12/11 05:13:51;;;;;;;;;;;;;;;;;;5073934;28;19916;-72
2020/12/11 05:16:17;;;;;;;;;;;;;;;;;;5073889;28;19905;-71
2020/12/11 05:18:43;;;;;;;;;;;;;;;;;;5072074;28;19959;-71
2020/12/11 05:21:09;;;;;;;;;;;;;;;;;;5073718;28;19912;-71
2020/12/11 05:23:35;;;;;;;;;;;;;;;;;;5073230;28;19913;-71
2020/12/11 05:26:01;;;;;;;;;;;;;;;;;;5073871;28;20291;-72
2020/12/11 05:28:27;;;;;;;;;;;;;;;;;;5073428;28;20395;-71
2020/12/11 05:30:52;;;;;;;;;;;;;;;;;;5073683;28;19908;-72
2020/12/11 05:33:18;;;;;;;;;;;;;;;;;;5073689;28;19951;-71
2020/12/11 05:35:44;;;;;;;;;;;;;;;;;;5073703;28;20470;-71
2020/12/11 05:38:10;;;;;;;;;;;;;;;;;;5062686;28;20020;-72
2020/12/11 05:40:37;;;;;;;;;;;;;;;;;;5074447;28;20031;-75
2020/12/11 05:43:03;;;;;;;;;;;;;;;;;;5073363;28;19909;-73
2020/12/11 05:45:29;;;;;;;;;;;;;;;;;;5042712;28;19935;-75
2020/12/11 05:47:54;;;;;;;;;;;;;;;;;;5039729;28;19916;-72
2020/12/11 05:50:20;;;;;;;;;;;;;;;;;;5033256;28;19920;-72
2020/12/11 05:52:46;;;;;;;;;;;;;;;;;;5032322;28;20344;-72
2020/12/11 05:55:12;;;;;;;;;;;;;;;;;;5032108;28;20039;-72
2020/12/11 05:57:38;;;;;;;;;;;;;;;;;;5033100;28;20353;-73
2020/12/11 06:00:04;;;;;;;;;;;;;;;;;;5035703;28;19992;-74
2020/12/11 06:02:30;;;;;;;;;;;;;;;;;;5033147;28;20012;-72
2020/12/11 06:04:56;;;;;;;;;;;;;;;;;;5032951;28;20370;-74
2020/12/11 06:07:22;;;;;;;;;;;;;;;;;;5053208;28;19912;-70
2020/12/11 06:09:47;;;;;;;;;;;;;;;;;;5060421;28;19948;-72
2020/12/11 06:12:13;;;;;;;;;;;;;;;;;;5071713;28;20015;-72
2020/12/11 06:14:39;;;;;;;;;;;;;;;;;;5072938;28;20003;-72
2020/12/11 06:17:05;;;;;;;;;;;;;;;;;;5050446;28;20400;-71
2020/12/11 06:19:31;;;;;;;;;;;;;;;;;;5033019;28;20030;-71
2020/12/11 06:21:57;;;;;;;;;;;;;;;;;;5039765;28;20318;-72
2020/12/11 06:24:23;;;;;;;;;;;;;;;;;;5052203;28;19909;-75
2020/12/11 06:26:49;;;;;;;;;;;;;;;;;;5043978;28;19975;-72
2020/12/11 06:29:15;;;;;;;;;;;;;;;;;;5041352;28;19986;-71
2020/12/11 06:31:41;;;;;;;;;;;;;;;;;;5050170;28;19958;-73
2020/12/11 06:34:06;;;;;;;;;;;;;;;;;;5051582;28;19951;-72
2020/12/11 06:36:32;;;;;;;;;;;;;;;;;;5051759;28;19971;-72
2020/12/11 06:38:58;;;;;;;;;;;;;;;;;;5057832;28;20388;-72
2020/12/11 06:41:24;;;;;;;;;;;;;;;;;;5055635;28;19959;-72
2020/12/11 06:43:50;;;;;;;;;;;;;;;;;;5072169;28;19919;-74
2020/12/11 06:46:16;;;;;;;;;;;;;;;;;;5072343;28;19952;-75
2020/12/11 06:48:42;;;;;;;;;;;;;;;;;;5071778;28;20535;-73
2020/12/11 06:51:08;;;;;;;;;;;;;;;;;;5072096;28;19942;-72
2020/12/11 06:53:34;;;;;;;;;;;;;;;;;;5070334;28;19944;-71
2020/12/11 06:56:00;;;;;;;;;;;;;;;;;;5072018;28;20509;-72
2020/12/11 06:58:25;;;;;;;;;;;;;;;;;;5070882;28;19912;-72
2020/12/11 07:00:51;;;;;;;;;;;;;;;;;;5071988;28;19908;-73
2020/12/11 07:03:17;;;;;;;;;;;;;;;;;;5071658;28;20404;-73
2020/12/11 07:05:43;;;;;;;;;;;;;;;;;;5071770;28;20427;-73
2020/12/11 07:08:09;;;;;;;;;;;;;;;;;;5061804;28;20099;-74
2020/12/11 07:10:35;;;;;;;;;;;;;;;;;;5058462;28;20021;-71
2020/12/11 07:13:01;;;;;;;;;;;;;;;;;;5051799;28;19909;-71
2020/12/11 07:15:27;;;;;;;;;;;;;;;;;;5051672;28;19966;-71
2020/12/11 07:17:53;;;;;;;;;;;;;;;;;;5051314;28;20000;-71
2020/12/11 07:20:19;;;;;;;;;;;;;;;;;;5051542;28;19913;-72
2020/12/11 07:22:45;;;;;;;;;;;;;;;;;;5039268;28;20377;-72
2020/12/11 07:25:11;;;;;;;;;;;;;;;;;;5059259;28;19958;-70
2020/12/11 07:27:37;;;;;;;;;;;;;;;;;;5071440;28;20318;-71
2020/12/11 07:30:03;;;;;;;;;;;;;;;;;;5071551;28;19908;-72
2020/12/11 07:32:29;;;;;;;;;;;;;;;;;;5070065;28;19916;-74
2020/12/11 07:34:55;;;;;;;;;;;;;;;;;;5071436;28;19952;-72
2020/12/11 07:37:20;;;;;;;;;;;;;;;;;;5068688;28;20332;-71
2020/12/11 07:39:46;;;;;;;;;;;;;;;;;;5059151;28;19908;-72
2020/12/11 07:42:12;;;;;;;;;;;;;;;;;;5069900;28;19936;-71
2020/12/11 07:44:38;;;;;;;;;;;;;;;;;;5070211;28;19916;-72
2020/12/11 07:47:04;;;;;;;;;;;;;;;;;;5071414;28;19908;-73
2020/12/11 07:49:30;;;;;;;;;;;;;;;;;;5071279;28;20586;-72
2020/12/11 07:51:56;;;;;;;;;;;;;;;;;;5070093;28;20020;-73
2020/12/11 07:54:22;;;;;;;;;;;;;;;;;;5071239;28;19995;-74
2020/12/11 07:56:48;;;;;;;;;;;;;;;;;;5071174;28;20307;-71
2020/12/11 07:59:14;;;;;;;;;;;;;;;;;;5071239;28;19999;-71
2020/12/11 08:01:39;;;;;;;;;;;;;;;;;;5071273;28;19953;-73
2020/12/11 08:04:05;;;;;;;;;;;;;;;;;;5071177;28;20007;-72
2020/12/11 08:06:31;;;;;;;;;;;;;;;;;;5071175;28;19995;-72
2020/12/11 08:08:57;;;;;;;;;;;;;;;;;;5062710;28;19913;-72
2020/12/11 08:11:23;;;;;;;;;;;;;;;;;;5066534;28;19917;-72
2020/12/11 08:13:49;;;;;;;;;;;;;;;;;;5067067;28;19908;-73
2020/12/11 08:16:15;;;;;;;;;;;;;;;;;;5066488;28;19971;-71
2020/12/11 08:18:41;;;;;;;;;;;;;;;;;;5074631;28;19960;-71
2020/12/11 08:21:09;;;;;;;;;;;;;;;;;;5075062;28;20007;-71
2020/12/11 08:23:37;;;;;;;;;;;;;;;;;;5075087;28;19912;-72
2020/12/11 08:26:03;;;;;;;;;;;;;;;;;;5074977;28;19908;-72
2020/12/11 08:28:29;;;;;;;;;;;;;;;;;;5074550;28;19919;-72
2020/12/11 08:30:55;;;;;;;;;;;;;;;;;;5074703;28;19915;-71
2020/12/11 08:33:21;;;;;;;;;;;;;;;;;;5054888;28;19909;-72
2020/12/11 08:35:47;;;;;;;;;;;;;;;;;;5055070;28;19955;-71
2020/12/11 08:38:14;;;;;;;;;;;;;;;;;;5054770;28;19917;-72
2020/12/11 08:40:40;;;;;;;;;;;;;;;;;;5059726;28;20364;-74
2020/12/11 08:45:46;;;;;;;;;;;;;;;;;;5074513;28;19912;-72
2020/12/11 08:51:07;;;;;;;;;;;;;;;;;;5074584;28;19958;-73
2020/12/11 08:53:39;;;;;;;;;;;;;;;;;;5074619;28;20360;-72
2020/12/11 08:56:05;;;;;;;;;;;;;;;;;;5074045;28;19912;-72
2020/12/11 08:58:31;;;;;;;;;;;;;;;;;;5072508;28;19938;-71
2020/12/11 09:00:57;;;;;;;;;;;;;;;;;;5074132;28;19913;-71
2020/12/11 09:03:23;;;;;;;;;;;;;;;;;;5074082;28;20380;-71
2020/12/11 09:05:49;;;;;;;;;;;;;;;;;;5074236;28;20042;-72
2020/12/11 09:08:15;;;;;;;;;;;;;;;;;;5065102;28;19967;-71
2020/12/11 09:10:41;;;;;;;;;;;;;;;;;;5055307;28;20397;-71
2020/12/11 09:13:07;;;;;;;;;;;;;;;;;;5065571;28;19908;-71
2020/12/11 09:15:33;;;;;;;;;;;;;;;;;;5067010;28;20015;-71
2020/12/11 09:17:59;;;;;;;;;;;;;;;;;;5053406;28;19976;-73
2020/12/11 09:20:25;;;;;;;;;;;;;;;;;;5072594;28;19966;-71
2020/12/11 09:22:51;;;;;;;;;;;;;;;;;;5063144;28;19991;-72
2020/12/11 09:25:18;;;;;;;;;;;;;;;;;;5053750;28;20356;-73
2020/12/11 09:27:44;;;;;;;;;;;;;;;;;;5051219;28;19915;-70
2020/12/11 09:30:27;;;;;;;;;;;;;;;;;;5046662;28;19917;-70
2020/12/11 09:33:13;;;;;;;;;;;;;;;;;;5033455;28;19909;-69
2020/12/11 09:35:39;;;;;;;;;;;;;;;;;;5039228;28;19913;-70
2020/12/11 09:38:05;;;;;;;;;;;;;;;;;;5040424;28;20403;-70
2020/12/11 09:45:46;;;;;;;;;;;;;;;;;;5063260;28;19908;-69
2020/12/11 09:51:26;;;;;;;;;;;;;;;;;;5016196;28;19913;-69
2020/12/11 09:56:24;;;;;;;;;;;;;;;;;;5042041;28;19909;-69
2020/12/11 09:58:52;;;;;;;;;;;;;;;;;;5040712;28;20360;-69
2020/12/11 10:01:21;;;;;;;;;;;;;;;;;;5043790;28;20016;-69
2020/12/11 10:03:47;;;;;;;;;;;;;;;;;;5042781;28;19953;-70
2020/12/11 10:06:13;;;;;;;;;;;;;;;;;;5041908;28;19940;-72
2020/12/11 10:08:39;;;;;;;;;;;;;;;;;;5043454;28;20317;-69
2020/12/11 10:11:05;;;;;;;;;;;;;;;;;;5047822;28;20020;-68
2020/12/11 10:13:31;;;;;;;;;;;;;;;;;;5047565;28;19944;-69
2020/12/11 10:15:58;;;;;;;;;;;;;;;;;;5042242;28;20356;-69
2020/12/11 10:18:24;;;;;;;;;;;;;;;;;;5043167;28;19920;-72
2020/12/11 10:20:50;;;;;;;;;;;;;;;;;;5041289;28;19964;-68
2020/12/11 10:23:16;;;;;;;;;;;;;;;;;;5044610;28;20561;-69
2020/12/11 10:25:42;;;;;;;;;;;;;;;;;;5040845;28;20296;-69
2020/12/11 10:28:08;;;;;;;;;;;;;;;;;;5044525;28;19909;-70
2020/12/11 10:30:33;;;;;;;;;;;;;;;;;;5043596;28;19935;-70
2020/12/11 10:32:59;;;;;;;;;;;;;;;;;;5043788;28;20340;-70
2020/12/11 10:35:25;;;;;;;;;;;;;;;;;;5043069;28;20260;-70
2020/12/11 10:37:51;;;;;;;;;;;;;;;;;;5042650;28;20285;-70
2020/12/11 10:40:17;;;;;;;;;;;;;;;;;;5047196;28;19932;-70
2020/12/11 10:42:43;;;;;;;;;;;;;;;;;;5050845;28;19955;-72
2020/12/11 10:45:09;;;;;;;;;;;;;;;;;;5042505;28;19917;-69
2020/12/11 10:47:35;;;;;;;;;;;;;;;;;;5041537;28;19962;-69
2020/12/11 10:50:01;;;;;;;;;;;;;;;;;;5043570;28;19932;-70
2020/12/11 10:52:27;;;;;;;;;;;;;;;;;;5041820;28;20376;-69
2020/12/11 10:54:55;;;;;;;;;;;;;;;;;;5036691;28;19959;-69
2020/12/11 10:57:21;;;;;;;;;;;;;;;;;;5039421;28;19912;-69
2020/12/11 10:59:46;;;;;;;;;;;;;;;;;;5041045;28;19909;-69
2020/12/11 11:02:12;;;;;;;;;;;;;;;;;;5042623;28;19916;-72
2020/12/11 11:04:38;;;;;;;;;;;;;;;;;;5041591;28;19909;-72
2020/12/11 11:07:16;;;;;;;;;;;;;;;;;;5046643;28;19912;-72
2020/12/11 11:09:48;;;;;;;;;;;;;;;;;;5043686;28;20389;-70
2020/12/11 11:12:21;;;;;;;;;;;;;;;;;;5045973;28;20326;-69
2020/12/11 11:25:38;;;;;;;;;;;;;;;;;;5059357;28;19909;-69
2020/12/11 11:28:01;;;;;;;;;;;;;;;;;;5052472;28;19913;-69
2020/12/11 11:30:28;;;;;;;;;;;;;;;;;;5053158;28;19916;-70
2020/12/11 11:32:54;;;;;;;;;;;;;;;;;;5053206;28;19909;-71
2020/12/11 11:35:20;;;;;;;;;;;;;;;;;;5053541;28;19913;-69
2020/12/11 11:37:46;;;;;;;;;;;;;;;;;;5051630;28;19916;-72
2020/12/11 11:40:12;;;;;;;;;;;;;;;;;;5054776;28;19913;-68
2020/12/11 11:42:38;;;;;;;;;;;;;;;;;;5059953;28;19916;-69
2020/12/11 11:45:05;;;;;;;;;;;;;;;;;;5060146;28;20479;-69
2020/12/11 11:47:31;;;;;;;;;;;;;;;;;;5071639;28;20280;-72
2020/12/11 11:52:45;;;;;;;;;;;;;;;;;;5073611;28;19915;-70
2020/12/11 11:55:12;;;;;;;;;;;;;;;;;;5072361;22;19910;-74
2020/12/11 11:57:38;;;;;;;;;;;;;;;;;;5024420;28;19925;-74
2020/12/11 12:00:04;;;;;;;;;;;;;;;;;;5048136;28;19996;-74
2020/12/11 12:02:36;;;;;;;;;;;;;;;;;;5048471;28;19912;-73
2020/12/11 12:05:02;;;;;;;;;;;;;;;;;;5031493;28;19909;-74
2020/12/11 12:07:33;;;;;;;;;;;;;;;;;;5026770;28;19920;-77
2020/12/11 12:09:59;;;;;;;;;;;;;;;;;;5027423;28;19910;-74
2020/12/11 12:12:28;;;;;;;;;;;;;;;;;;5030130;28;19915;-74
2020/12/11 12:14:54;;;;;;;;;;;;;;;;;;5032879;28;19920;-74
2020/12/11 12:17:29;;;;;;;;;;;;;;;;;;5032871;28;19925;-74
2020/12/11 12:19:59;;;;;;;;;;;;;;;;;;5047282;28;19916;-74
2020/12/11 12:30:08;;;;;;;;;;;;;;;;;;5033961;28;20392;-74
2020/12/11 12:32:47;;;;;;;;;;;;;;;;;;5030158;28;19909;-74
2020/12/11 12:38:18;;;;;;;;;;;;;;;;;;4997452;28;19975;-74
2020/12/11 12:43:26;;;;;;;;;;;;;;;;;;5031100;28;19917;-75
2020/12/11 12:45:51;;;;;;;;;;;;;;;;;;5029845;28;19919;-74
2020/12/11 12:48:17;;;;;;;;;;;;;;;;;;5029690;28;20553;-75
2020/12/11 12:50:43;;;;;;;;;;;;;;;;;;5029175;28;20378;-75
2020/12/11 12:53:09;;;;;;;;;;;;;;;;;;5030546;28;19992;-75
2020/12/11 12:55:44;;;;;;;;;;;;;;;;;;5029636;28;19945;-75
2020/12/11 12:58:12;;;;;;;;;;;;;;;;;;5033039;28;20536;-75
2020/12/11 13:04:04;;;;;;;;;;;;;;;;;;5034550;28;19913;-75
2020/12/11 13:06:09;;;;;;;;;;;;;;;;;;5033169;28;19916;-75
2020/12/11 13:08:35;;;;;;;;;;;;;;;;;;5033546;28;20004;-75
2020/12/11 13:11:01;;;;;;;;;;;;;;;;;;5032872;28;19960;-75
2020/12/11 13:13:26;;;;;;;;;;;;;;;;;;5034140;28;20443;-74
2020/12/11 13:15:52;;;;;;;;;;;;;;;;;;5034176;28;20010;-75
2020/12/11 13:18:18;;;;;;;;;;;;;;;;;;5032529;28;20393;-75
2020/12/11 13:20:45;;;;;;;;;;;;;;;;;;5032538;28;19971;-75
2020/12/11 13:28:37;;;;;;;;;;;;;;;;;;5035443;28;19991;-74
2020/12/11 13:31:03;;;;;;;;;;;;;;;;;;5049435;28;19945;-74
2020/12/11 13:33:29;;;;;;;;;;;;;;;;;;5049608;28;19996;-75
2020/12/11 13:35:55;;;;;;;;;;;;;;;;;;5049944;28;19909;-75
2020/12/11 13:38:21;;;;;;;;;;;;;;;;;;5048872;28;19956;-75
2020/12/11 13:40:47;;;;;;;;;;;;;;;;;;5038907;28;19909;-74
2020/12/11 13:43:13;;;;;;;;;;;;;;;;;;5032646;28;20478;-75
2020/12/11 13:45:39;;;;;;;;;;;;;;;;;;5032092;28;19952;-74
2020/12/11 13:48:05;;;;;;;;;;;;;;;;;;5032279;28;19949;-75
2020/12/11 13:50:30;;;;;;;;;;;;;;;;;;5032506;28;19963;-74
2020/12/11 13:52:56;;;;;;;;;;;;;;;;;;5048507;28;19957;-75
2020/12/11 13:55:22;;;;;;;;;;;;;;;;;;5048490;28;19960;-74
2020/12/11 13:57:48;;;;;;;;;;;;;;;;;;5047968;28;19972;-75
2020/12/11 14:00:14;;;;;;;;;;;;;;;;;;5048435;28;19944;-75
2020/12/11 14:02:41;;;;;;;;;;;;;;;;;;5048354;28;19909;-75
2020/12/11 14:05:06;;;;;;;;;;;;;;;;;;5048578;28;20027;-75
2020/12/11 14:07:32;;;;;;;;;;;;;;;;;;5047982;28;20458;-75
2020/12/11 14:09:58;;;;;;;;;;;;;;;;;;5031627;28;19952;-75
2020/12/11 14:12:24;;;;;;;;;;;;;;;;;;5031787;28;20002;-74
2020/12/11 14:14:50;;;;;;;;;;;;;;;;;;5032332;28;20244;-75
2020/12/11 14:17:22;;;;;;;;;;;;;;;;;;5031667;28;19959;-75
2020/12/11 14:22:37;;;;;;;;;;;;;;;;;;5033087;28;20283;-75
2020/12/11 14:25:03;;;;;;;;;;;;;;;;;;5029284;28;19913;-75
2020/12/11 14:27:29;;;;;;;;;;;;;;;;;;5015442;28;19913;-74
2020/12/11 14:29:55;;;;;;;;;;;;;;;;;;5014696;28;19909;-75
2020/12/11 14:32:21;;;;;;;;;;;;;;;;;;5024278;28;20011;-75
2020/12/11 14:34:47;;;;;;;;;;;;;;;;;;5027972;28;20004;-75
2020/12/11 14:37:13;;;;;;;;;;;;;;;;;;5031082;28;19963;-75
2020/12/11 14:39:39;;;;;;;;;;;;;;;;;;5030875;28;20331;-75
2020/12/11 14:42:06;;;;;;;;;;;;;;;;;;5033122;28;19916;-75
2020/12/11 14:44:34;;;;;;;;;;;;;;;;;;5049207;28;19987;-75
2020/12/11 14:47:00;;;;;;;;;;;;;;;;;;5048109;28;19959;-75
2020/12/11 14:49:26;;;;;;;;;;;;;;;;;;5047868;28;19984;-75
2020/12/11 14:51:53;;;;;;;;;;;;;;;;;;5023810;28;19942;-75
2020/12/11 14:54:19;;;;;;;;;;;;;;;;;;5030949;28;20012;-75
2020/12/11 14:56:46;;;;;;;;;;;;;;;;;;5031057;28;20367;-75
2020/12/11 14:59:12;;;;;;;;;;;;;;;;;;5030779;28;19917;-75
2020/12/11 15:01:38;;;;;;;;;;;;;;;;;;5030928;28;19936;-75
2020/12/11 15:04:04;;;;;;;;;;;;;;;;;;5030843;28;19909;-75
2020/12/11 15:06:30;;;;;;;;;;;;;;;;;;5031157;28;19972;-75
2020/12/11 15:08:56;;;;;;;;;;;;;;;;;;5029853;28;20367;-75
2020/12/11 15:11:22;;;;;;;;;;;;;;;;;;5029960;28;20006;-75
2020/12/11 15:13:48;;;;;;;;;;;;;;;;;;5030076;28;19913;-75
2020/12/11 15:16:14;;;;;;;;;;;;;;;;;;5030287;28;19917;-75
2020/12/11 15:18:40;;;;;;;;;;;;;;;;;;5046309;28;19960;-75
2020/12/11 15:21:06;;;;;;;;;;;;;;;;;;5029865;28;19999;-76
2020/12/11 15:23:31;;;;;;;;;;;;;;;;;;5029861;28;19948;-75
2020/12/11 15:25:57;;;;;;;;;;;;;;;;;;5049894;28;19915;-75
2020/12/11 15:28:23;;;;;;;;;;;;;;;;;;5037771;28;20310;-75
2020/12/11 15:30:49;;;;;;;;;;;;;;;;;;5042000;28;19909;-74
2020/12/11 15:33:18;;;;;;;;;;;;;;;;;;5055283;28;20397;-74
2020/12/11 15:35:44;;;;;;;;;;;;;;;;;;5057319;28;19909;-74
2020/12/11 15:38:10;;;;;;;;;;;;;;;;;;5049486;28;20064;-74
2020/12/11 15:40:36;;;;;;;;;;;;;;;;;;5029834;28;19983;-77
2020/12/11 15:43:02;;;;;;;;;;;;;;;;;;5031410;28;19909;-75
2020/12/11 15:45:28;;;;;;;;;;;;;;;;;;5029846;28;20346;-75
2020/12/11 15:47:54;;;;;;;;;;;;;;;;;;5030160;28;19940;-74
2020/12/11 15:50:28;;;;;;;;;;;;;;;;;;5029742;28;19913;-74
2020/12/11 15:52:54;;;;;;;;;;;;;;;;;;5030137;28;19909;-74
2020/12/11 15:55:20;;;;;;;;;;;;;;;;;;5029945;28;19916;-74
2020/12/11 15:57:46;;;;;;;;;;;;;;;;;;5030007;28;19920;-74
2020/12/11 16:00:12;;;;;;;;;;;;;;;;;;5030149;28;20454;-75
2020/12/11 16:02:38;;;;;;;;;;;;;;;;;;5030256;28;19909;-74
2020/12/11 16:05:04;;;;;;;;;;;;;;;;;;5029945;28;19964;-74
2020/12/11 16:07:30;;;;;;;;;;;;;;;;;;5029874;28;19957;-74
2020/12/11 16:09:56;;;;;;;;;;;;;;;;;;5029914;28;19948;-75
2020/12/11 16:12:22;;;;;;;;;;;;;;;;;;5029762;28;19913;-74
2020/12/11 16:14:48;;;;;;;;;;;;;;;;;;5029832;28;19956;-74
2020/12/11 16:17:13;;;;;;;;;;;;;;;;;;5029503;28;19949;-74
2020/12/11 16:19:39;;;;;;;;;;;;;;;;;;5039039;28;19909;-74
2020/12/11 16:22:05;;;;;;;;;;;;;;;;;;5049665;28;20428;-74
2020/12/11 16:24:31;;;;;;;;;;;;;;;;;;5049681;28;19956;-74
2020/12/11 16:26:57;;;;;;;;;;;;;;;;;;5035657;28;19995;-74
2020/12/11 16:29:23;;;;;;;;;;;;;;;;;;5028390;28;19992;-74
2020/12/11 16:31:49;;;;;;;;;;;;;;;;;;5032138;28;19913;-74
2020/12/11 16:34:15;;;;;;;;;;;;;;;;;;5033533;28;19909;-74
2020/12/11 16:36:41;;;;;;;;;;;;;;;;;;5033479;28;20347;-75
2020/12/11 16:39:07;;;;;;;;;;;;;;;;;;5033740;28;19952;-75
2020/12/11 16:41:33;;;;;;;;;;;;;;;;;;5033366;28;19956;-74
2020/12/11 16:44:04;;;;;;;;;;;;;;;;;;5033242;28;19956;-75
2020/12/11 16:46:30;;;;;;;;;;;;;;;;;;5033220;28;19909;-74
2020/12/11 16:49:01;;;;;;;;;;;;;;;;;;5034128;28;19909;-74
2020/12/11 16:51:27;;;;;;;;;;;;;;;;;;5069766;22;19943;-70
2020/12/11 16:53:53;;;;;;;;;;;;;;;;;;5061495;28;20392;-70
2020/12/11 16:56:19;;;;;;;;;;;;;;;;;;5053958;28;19952;-70
2020/12/11 16:58:46;;;;;;;;;;;;;;;;;;5052862;28;19991;-70
2020/12/11 17:01:11;;;;;;;;;;;;;;;;;;5054380;28;19940;-70
2020/12/11 17:03:53;;;;;;;;;;;;;;;;;;5053141;28;19955;-69
2020/12/11 17:06:34;;;;;;;;;;;;;;;;;;5053116;28;19908;-70
2020/12/11 17:09:13;;;;;;;;;;;;;;;;;;5051600;28;19951;-70
2020/12/11 17:11:39;;;;;;;;;;;;;;;;;;5054346;28;19909;-70
2020/12/11 17:14:05;;;;;;;;;;;;;;;;;;5054304;28;20257;-70
2020/12/11 17:16:31;;;;;;;;;;;;;;;;;;5053030;28;19909;-70
2020/12/11 17:18:57;;;;;;;;;;;;;;;;;;5052521;28;19955;-70
2020/12/11 17:21:23;;;;;;;;;;;;;;;;;;5053652;28;20010;-70
2020/12/11 17:23:49;;;;;;;;;;;;;;;;;;5053559;28;20442;-69
2020/12/11 17:26:15;;;;;;;;;;;;;;;;;;5053412;28;19948;-69
2020/12/11 17:28:41;;;;;;;;;;;;;;;;;;5053545;28;19951;-70
2020/12/11 17:31:13;;;;;;;;;;;;;;;;;;5053475;28;19916;-70
2020/12/11 17:33:41;;;;;;;;;;;;;;;;;;5053437;28;19995;-69